Time;durP1;ratioP1;P1;durP2;ratioP2;P2;SDS_P1;SDS_P2;PMS_P1;PMS_P2;Temp;Humidity;BMP_temperature;BMP_pressure;BME280_temperature;BME280_humidity;BME280_pressure;Samples;Min_cycle;Max_cycle;Signal;HPM_P1;HPM_P2
2022/01/25 00:27:12;;;;;;;19.20;14.30;;;;;;;;;;4178113;34;20103;-68
2022/01/25 00:32:08;;;;;;;16.80;13.80;;;;;;;;;;4164491;34;20482;-68
2022/01/25 00:34:34;;;;;;;21.12;15.07;;;;;;;;;;4164366;34;20440;-68
2022/01/25 00:37:00;;;;;;;18.17;14.13;;;;;;;;;;4164444;34;20115;-69
2022/01/25 00:39:26;;;;;;;21.98;14.20;;;;;;;;;;4176582;34;20134;-68
2022/01/25 00:41:52;;;;;;;18.33;12.93;;;;;;;;;;4178053;34;20553;-69
2022/01/25 00:44:19;;;;;;;16.87;12.95;;;;;;;;;;4177802;34;20112;-68
2022/01/25 00:46:45;;;;;;;25.73;18.33;;;;;;;;;;4165156;34;20121;-68
2022/01/25 00:49:14;;;;;;;37.40;26.73;;;;;;;;;;4177885;34;20110;-71
2022/01/25 00:54:31;;;;;;;48.87;34.67;;;;;;;;;;4177966;34;20129;-71
2022/01/25 00:56:58;;;;;;;42.83;29.80;;;;;;;;;;4164384;34;20106;-70
2022/01/25 00:59:27;;;;;;;43.72;30.67;;;;;;;;;;4163039;34;20119;-70
2022/01/25 01:01:57;;;;;;;40.72;29.08;;;;;;;;;;4164137;34;20194;-64
2022/01/25 01:04:23;;;;;;;43.95;31.65;;;;;;;;;;4164304;34;20184;-64
2022/01/25 01:06:50;;;;;;;41.42;31.15;;;;;;;;;;4164129;34;20506;-64
2022/01/25 01:09:18;;;;;;;45.83;31.52;;;;;;;;;;4164191;34;20206;-64
2022/01/25 01:11:54;;;;;;;45.30;30.60;;;;;;;;;;4163920;34;20119;-63
2022/01/25 01:31:01;;;;;;;45.35;30.95;;;;;;;;;;4177622;34;20234;-64
2022/01/25 01:44:03;;;;;;;50.08;34.00;;;;;;;;;;4165573;34;20508;-68
2022/01/25 01:46:45;;;;;;;48.83;32.92;;;;;;;;;;4176107;34;20118;-68
2022/01/25 01:49:11;;;;;;;45.53;34.30;;;;;;;;;;4164672;34;20116;-70
2022/01/25 01:51:42;;;;;;;57.25;40.45;;;;;;;;;;4164656;34;20511;-70
2022/01/25 01:54:14;;;;;;;68.87;49.53;;;;;;;;;;4177314;34;20194;-70
2022/01/25 01:56:42;;;;;;;59.70;42.00;;;;;;;;;;4164816;34;20136;-71
2022/01/25 01:59:11;;;;;;;68.70;45.42;;;;;;;;;;4177367;34;20113;-75
2022/01/25 02:01:39;;;;;;;72.50;51.72;;;;;;;;;;4164537;34;20130;-70
2022/01/25 02:04:06;;;;;;;62.83;45.75;;;;;;;;;;4164525;34;20413;-69
2022/01/25 02:06:33;;;;;;;61.72;43.50;;;;;;;;;;4164544;34;20098;-71
2022/01/25 02:08:59;;;;;;;65.93;48.95;;;;;;;;;;4175845;34;20093;-71
2022/01/25 02:11:25;;;;;;;62.58;45.22;;;;;;;;;;4164719;34;20540;-70
2022/01/25 02:13:52;;;;;;;56.25;40.12;;;;;;;;;;4164695;34;20087;-69
2022/01/25 02:16:56;;;;;;;35.35;26.95;;;;;;;;;;4164649;34;20140;-69
2022/01/25 02:24:39;;;;;;;25.05;16.02;;;;;;;;;;4163228;34;20132;-68
2022/01/25 02:27:06;;;;;;;20.58;15.70;;;;;;;;;;4161802;34;20219;-69
2022/01/25 02:29:32;;;;;;;22.55;16.48;;;;;;;;;;4163475;34;20118;-69
2022/01/25 02:31:58;;;;;;;21.27;17.08;;;;;;;;;;4163478;34;20189;-69
2022/01/25 02:34:25;;;;;;;26.73;19.33;;;;;;;;;;4163327;34;20103;-69
2022/01/25 02:36:59;;;;;;;25.58;18.85;;;;;;;;;;4162114;34;20134;-70
2022/01/25 02:39:25;;;;;;;23.95;17.70;;;;;;;;;;4162439;34;20105;-70
2022/01/25 02:41:52;;;;;;;25.20;17.02;;;;;;;;;;4162028;34;20095;-69
2022/01/25 02:44:24;;;;;;;26.05;18.02;;;;;;;;;;4163207;34;20114;-70
2022/01/25 02:49:28;;;;;;;26.60;17.37;;;;;;;;;;4162008;34;20211;-73
2022/01/25 02:51:55;;;;;;;24.17;16.50;;;;;;;;;;4161956;34;20843;-73
2022/01/25 02:54:21;;;;;;;24.02;16.45;;;;;;;;;;4161870;34;20139;-75
2022/01/25 02:56:47;;;;;;;24.45;17.48;;;;;;;;;;4162978;34;20111;-76
2022/01/25 02:59:16;;;;;;;20.55;16.85;;;;;;;;;;4163103;34;20141;-72
2022/01/25 03:01:43;;;;;;;25.73;18.08;;;;;;;;;;4163201;34;20122;-73
2022/01/25 03:04:11;;;;;;;26.20;19.67;;;;;;;;;;4163072;34;20186;-74
2022/01/25 03:06:37;;;;;;;25.40;19.73;;;;;;;;;;4150816;34;20432;-73
2022/01/25 03:09:04;;;;;;;30.20;22.30;;;;;;;;;;4162312;34;20179;-70
2022/01/25 03:11:31;;;;;;;27.92;21.90;;;;;;;;;;4161823;34;20118;-72
2022/01/25 03:14:00;;;;;;;32.53;24.90;;;;;;;;;;4162823;34;20121;-74
2022/01/25 03:16:36;;;;;;;34.47;25.12;;;;;;;;;;4162769;34;20142;-71
2022/01/25 03:19:30;;;;;;;34.75;26.73;;;;;;;;;;4161327;34;20137;-73
2022/01/25 03:21:58;;;;;;;41.22;32.80;;;;;;;;;;4167836;34;20098;-70
2022/01/25 03:24:24;;;;;;;45.20;34.53;;;;;;;;;;4163651;34;20095;-70
2022/01/25 03:26:50;;;;;;;42.60;34.58;;;;;;;;;;4163808;34;20098;-70
2022/01/25 03:29:17;;;;;;;41.08;33.83;;;;;;;;;;4163635;34;20420;-72
2022/01/25 03:31:43;;;;;;;40.90;32.72;;;;;;;;;;4176109;34;20107;-70
2022/01/25 03:34:09;;;;;;;43.15;32.80;;;;;;;;;;4163742;34;20129;-70
2022/01/25 03:36:36;;;;;;;43.38;32.60;;;;;;;;;;4175981;34;20117;-71
2022/01/25 03:39:04;;;;;;;38.15;30.92;;;;;;;;;;4176234;34;20118;-71
2022/01/25 03:41:31;;;;;;;36.78;29.25;;;;;;;;;;4163496;34;20110;-70
2022/01/25 03:43:57;;;;;;;40.15;30.33;;;;;;;;;;4176099;34;20099;-71
2022/01/25 03:46:39;;;;;;;35.58;30.23;;;;;;;;;;4176867;34;20512;-70
2022/01/25 03:51:50;;;;;;;33.00;24.48;;;;;;;;;;4154022;34;20110;-72
2022/01/25 03:54:17;;;;;;;32.42;24.83;;;;;;;;;;4165583;34;20550;-71
2022/01/25 03:56:44;;;;;;;32.05;26.10;;;;;;;;;;4165329;34;20107;-72
2022/01/25 03:59:10;;;;;;;28.00;21.48;;;;;;;;;;4165387;34;20114;-72
2022/01/25 04:01:36;;;;;;;27.58;20.12;;;;;;;;;;4165192;34;20436;-72
2022/01/25 04:04:10;;;;;;;24.50;19.87;;;;;;;;;;4165338;34;20110;-71
2022/01/25 04:06:37;;;;;;;23.45;18.27;;;;;;;;;;4154563;34;20541;-72
2022/01/25 04:09:05;;;;;;;23.27;18.15;;;;;;;;;;4165724;34;20524;-72
2022/01/25 04:11:31;;;;;;;21.83;16.83;;;;;;;;;;4176940;34;20115;-72
2022/01/25 04:13:58;;;;;;;19.08;15.75;;;;;;;;;;4178038;34;20090;-72
2022/01/25 04:16:33;;;;;;;19.58;16.00;;;;;;;;;;4165051;34;20522;-72
2022/01/25 04:26:51;;;;;;;16.48;11.63;;;;;;;;;;4177966;34;20121;-72
2022/01/25 04:29:17;;;;;;;19.08;12.82;;;;;;;;;;4165083;34;20130;-71
2022/01/25 04:31:44;;;;;;;16.25;12.23;;;;;;;;;;4153842;34;20544;-69
2022/01/25 04:56:04;;;;;;;14.18;11.00;;;;;;;;;;4177214;34;20202;-70
2022/01/25 04:58:42;;;;;;;14.73;11.00;;;;;;;;;;4165256;34;20105;-69
2022/01/25 05:01:08;;;;;;;14.45;11.25;;;;;;;;;;4173317;34;20506;-69
2022/01/25 05:04:23;;;;;;;16.60;11.65;;;;;;;;;;4173576;34;20147;-69
2022/01/25 05:06:24;;;;;;;15.90;11.90;;;;;;;;;;4165763;34;20570;-70
2022/01/25 05:08:54;;;;;;;15.05;10.98;;;;;;;;;;4164311;34;20224;-71
2022/01/25 05:11:30;;;;;;;15.43;12.43;;;;;;;;;;4175944;34;20639;-67
2022/01/25 05:14:15;;;;;;;21.27;12.20;;;;;;;;;;4165936;34;20130;-69
2022/01/25 05:16:54;;;;;;;16.10;12.18;;;;;;;;;;4166945;34;20198;-69
2022/01/25 05:22:20;;;;;;;18.40;13.10;;;;;;;;;;4143840;34;20095;-70
2022/01/25 05:24:48;;;;;;;18.50;11.98;;;;;;;;;;4172879;34;20142;-69
2022/01/25 05:27:16;;;;;;;17.37;12.57;;;;;;;;;;4173579;34;20122;-68
2022/01/25 05:29:42;;;;;;;19.00;12.43;;;;;;;;;;4173906;34;20126;-68
2022/01/25 05:32:08;;;;;;;14.82;12.15;;;;;;;;;;4173816;34;20508;-68
2022/01/25 05:34:35;;;;;;;15.40;12.07;;;;;;;;;;4173442;34;20107;-69
2022/01/25 05:37:03;;;;;;;15.57;12.32;;;;;;;;;;4163581;34;20098;-69
2022/01/25 05:39:32;;;;;;;15.80;12.25;;;;;;;;;;4184857;34;20110;-69
2022/01/25 05:42:19;;;;;;;19.12;12.98;;;;;;;;;;4163587;34;20142;-68
2022/01/25 05:45:11;;;;;;;16.30;12.65;;;;;;;;;;4181270;34;20114;-69
2022/01/25 05:47:40;;;;;;;15.75;12.02;;;;;;;;;;4171580;34;20567;-71
2022/01/25 05:50:06;;;;;;;19.25;12.68;;;;;;;;;;4173327;34;20126;-72
2022/01/25 05:52:32;;;;;;;15.35;12.00;;;;;;;;;;4184850;34;20158;-72
2022/01/25 05:54:59;;;;;;;14.57;11.55;;;;;;;;;;4185066;34;20097;-71
2022/01/25 05:57:26;;;;;;;16.73;12.20;;;;;;;;;;4184412;34;20086;-68
2022/01/25 05:59:53;;;;;;;13.62;11.27;;;;;;;;;;4184904;34;20501;-72
2022/01/25 06:02:21;;;;;;;15.88;11.35;;;;;;;;;;4184749;34;20103;-70
2022/01/25 06:04:47;;;;;;;15.75;11.43;;;;;;;;;;4184447;34;20527;-70
2022/01/25 06:07:13;;;;;;;14.05;11.27;;;;;;;;;;4173310;34;20122;-70
2022/01/25 06:09:41;;;;;;;13.27;10.82;;;;;;;;;;4184407;34;20095;-71
2022/01/25 06:12:08;;;;;;;16.55;11.25;;;;;;;;;;4172915;34;20428;-72
2022/01/25 06:14:34;;;;;;;15.07;11.32;;;;;;;;;;4173124;34;20459;-69
2022/01/25 06:17:00;;;;;;;37.28;26.35;;;;;;;;;;4184882;34;20126;-71
2022/01/25 06:19:26;;;;;;;62.00;42.97;;;;;;;;;;4163269;34;20532;-71
2022/01/25 06:21:52;;;;;;;76.03;57.88;;;;;;;;;;4178477;34;20127;-71
2022/01/25 06:24:18;;;;;;;77.45;60.05;;;;;;;;;;4175030;34;20526;-71
2022/01/25 06:26:44;;;;;;;90.97;64.90;;;;;;;;;;4164041;34;20082;-72
2022/01/25 06:29:11;;;;;;;73.15;53.22;;;;;;;;;;4175708;34;20439;-68
2022/01/25 06:31:37;;;;;;;73.12;53.10;;;;;;;;;;4176780;34;20113;-68
2022/01/25 06:34:03;;;;;;;65.05;48.47;;;;;;;;;;4175398;34;20471;-69
2022/01/25 06:36:29;;;;;;;63.90;48.72;;;;;;;;;;4176738;34;20125;-69
2022/01/25 06:38:55;;;;;;;62.88;46.53;;;;;;;;;;4175583;34;20122;-69
2022/01/25 06:41:21;;;;;;;53.25;41.50;;;;;;;;;;4176985;34;20527;-69
2022/01/25 06:43:47;;;;;;;50.72;38.83;;;;;;;;;;4176833;34;20121;-69
2022/01/25 06:46:13;;;;;;;44.20;35.35;;;;;;;;;;4176653;34;20098;-69
2022/01/25 06:48:39;;;;;;;47.15;34.95;;;;;;;;;;4176482;34;20085;-68
2022/01/25 06:51:05;;;;;;;40.85;32.95;;;;;;;;;;4176618;34;20121;-69
2022/01/25 06:53:32;;;;;;;39.95;32.03;;;;;;;;;;4176633;34;20122;-69
2022/01/25 06:55:58;;;;;;;44.80;35.00;;;;;;;;;;4175202;34;20101;-69
2022/01/25 06:58:24;;;;;;;45.05;36.25;;;;;;;;;;4176557;34;20438;-69
2022/01/25 07:00:50;;;;;;;46.30;36.90;;;;;;;;;;4177023;34;20111;-69
2022/01/25 07:03:16;;;;;;;45.53;35.28;;;;;;;;;;4176491;34;20149;-69
2022/01/25 07:05:42;;;;;;;43.97;33.63;;;;;;;;;;4175424;34;20216;-68
2022/01/25 07:08:08;;;;;;;42.28;33.67;;;;;;;;;;4176470;34;20137;-67
2022/01/25 07:10:34;;;;;;;46.22;34.25;;;;;;;;;;4176465;34;20198;-71
2022/01/25 07:13:00;;;;;;;41.78;35.25;;;;;;;;;;4175421;34;20122;-68
2022/01/25 07:15:26;;;;;;;37.83;30.70;;;;;;;;;;4176298;34;20132;-71
2022/01/25 07:17:52;;;;;;;41.50;29.58;;;;;;;;;;4176485;34;20118;-71
2022/01/25 07:20:18;;;;;;;41.65;32.47;;;;;;;;;;4175040;34;20487;-70
2022/01/25 07:22:44;;;;;;;47.10;34.72;;;;;;;;;;4178258;34;20131;-72
2022/01/25 07:25:11;;;;;;;55.03;40.40;;;;;;;;;;4165644;34;20117;-69
2022/01/25 07:27:38;;;;;;;50.35;39.08;;;;;;;;;;4165790;34;20093;-69
2022/01/25 07:30:05;;;;;;;55.45;40.65;;;;;;;;;;4176739;34;20189;-69
2022/01/25 07:32:31;;;;;;;52.15;40.28;;;;;;;;;;4176820;34;20110;-68
2022/01/25 07:34:57;;;;;;;55.60;41.45;;;;;;;;;;4178125;34;20121;-69
2022/01/25 07:37:23;;;;;;;69.65;50.85;;;;;;;;;;4177483;34;20137;-71
2022/01/25 07:39:50;;;;;;;57.72;45.45;;;;;;;;;;4178278;34;20490;-70
2022/01/25 07:42:17;;;;;;;62.00;47.35;;;;;;;;;;4165682;34;20546;-73
2022/01/25 07:44:44;;;;;;;66.75;52.58;;;;;;;;;;4166074;34;20125;-68
2022/01/25 07:47:10;;;;;;;95.60;69.10;;;;;;;;;;4177130;34;20112;-67
2022/01/25 07:49:36;;;;;;;124.82;87.45;;;;;;;;;;4178834;34;20121;-66
2022/01/25 07:52:03;;;;;;;131.57;90.95;;;;;;;;;;4178478;34;20114;-65
2022/01/25 07:54:29;;;;;;;129.85;94.55;;;;;;;;;;4178290;34;20134;-65
2022/01/25 07:56:56;;;;;;;130.25;94.10;;;;;;;;;;4165578;34;20121;-66
2022/01/25 07:59:22;;;;;;;127.45;90.22;;;;;;;;;;4177895;34;20536;-66
2022/01/25 08:01:49;;;;;;;114.93;82.90;;;;;;;;;;4178133;34;20117;-66
2022/01/25 08:04:15;;;;;;;120.97;88.57;;;;;;;;;;4177898;34;20205;-65
2022/01/25 08:06:41;;;;;;;114.40;84.18;;;;;;;;;;4165583;34;20118;-66
2022/01/25 08:09:08;;;;;;;113.15;85.70;;;;;;;;;;4178010;34;20211;-67
2022/01/25 08:11:35;;;;;;;113.05;80.68;;;;;;;;;;4177869;34;20562;-66
2022/01/25 08:14:16;;;;;;;109.43;81.55;;;;;;;;;;4177820;34;20113;-65
2022/01/25 08:16:44;;;;;;;116.28;80.40;;;;;;;;;;4153923;34;20091;-65
2022/01/25 08:19:11;;;;;;;114.18;78.93;;;;;;;;;;4177670;34;20214;-65
2022/01/25 08:21:37;;;;;;;108.57;79.03;;;;;;;;;;4177688;34;20109;-66
2022/01/25 08:24:04;;;;;;;105.15;79.40;;;;;;;;;;4177690;34;20194;-69
2022/01/25 08:26:30;;;;;;;117.35;85.53;;;;;;;;;;4165278;34;20142;-67
2022/01/25 08:28:56;;;;;;;109.15;79.07;;;;;;;;;;4177819;34;20410;-67
2022/01/25 08:31:23;;;;;;;100.00;73.90;;;;;;;;;;4177720;34;20118;-69
2022/01/25 08:33:49;;;;;;;104.47;72.28;;;;;;;;;;4164934;34;20563;-65
2022/01/25 08:36:15;;;;;;;93.62;66.53;;;;;;;;;;4164902;34;20106;-66
2022/01/25 08:38:41;;;;;;;92.40;64.05;;;;;;;;;;4176601;34;20497;-66
2022/01/25 08:41:08;;;;;;;88.80;60.50;;;;;;;;;;4177703;34;20106;-67
2022/01/25 08:43:34;;;;;;;80.60;58.10;;;;;;;;;;4177545;34;20565;-65
2022/01/25 08:46:01;;;;;;;85.28;60.63;;;;;;;;;;4164913;34;20193;-66
2022/01/25 08:48:27;;;;;;;90.82;62.78;;;;;;;;;;4165099;34;20424;-66
2022/01/25 08:50:53;;;;;;;88.00;61.28;;;;;;;;;;4177654;34;20105;-67
2022/01/25 08:53:19;;;;;;;79.72;57.40;;;;;;;;;;4177297;34;20471;-67
2022/01/25 08:55:45;;;;;;;83.90;58.58;;;;;;;;;;4177496;34;20104;-67
2022/01/25 08:58:11;;;;;;;83.30;58.25;;;;;;;;;;4177682;34;20190;-67
2022/01/25 09:00:37;;;;;;;78.20;56.40;;;;;;;;;;4163821;34;20110;-67
2022/01/25 09:03:04;;;;;;;87.20;59.25;;;;;;;;;;4177950;34;20130;-69
2022/01/25 09:05:30;;;;;;;81.57;57.20;;;;;;;;;;4177395;34;20138;-70
2022/01/25 09:07:57;;;;;;;68.82;49.95;;;;;;;;;;4175743;34;20098;-74
2022/01/25 09:10:25;;;;;;;59.40;44.63;;;;;;;;;;4146104;34;20215;-71
2022/01/25 09:12:51;;;;;;;76.00;53.15;;;;;;;;;;4163723;34;20206;-72
2022/01/25 09:15:17;;;;;;;46.05;33.33;;;;;;;;;;4150869;34;20137;-71
2022/01/25 09:17:43;;;;;;;31.20;23.52;;;;;;;;;;4159721;34;20679;-71
2022/01/25 09:20:10;;;;;;;15.82;12.07;;;;;;;;;;4174971;34;20103;-71
2022/01/25 09:22:36;;;;;;;14.23;10.85;;;;;;;;;;4174545;34;20086;-71
2022/01/25 09:25:03;;;;;;;11.15;9.02;;;;;;;;;;4162658;34;20535;-72
2022/01/25 09:27:29;;;;;;;12.13;8.75;;;;;;;;;;4164661;34;20126;-72
2022/01/25 09:29:55;;;;;;;13.35;11.05;;;;;;;;;;4164321;34;20121;-73
2022/01/25 09:32:21;;;;;;;19.67;15.93;;;;;;;;;;4176824;34;20570;-71
2022/01/25 09:34:47;;;;;;;15.45;11.65;;;;;;;;;;4161873;34;20115;-71
2022/01/25 09:37:13;;;;;;;17.25;12.23;;;;;;;;;;4173262;34;20227;-72
2022/01/25 09:39:39;;;;;;;16.50;10.73;;;;;;;;;;4164710;34;20110;-71
2022/01/25 09:42:09;;;;;;;14.25;11.40;;;;;;;;;;4164107;34;20509;-71
2022/01/25 09:44:40;;;;;;;14.38;10.90;;;;;;;;;;4163608;34;20109;-71
2022/01/25 09:47:06;;;;;;;14.27;9.80;;;;;;;;;;4176170;34;20113;-72
2022/01/25 09:49:33;;;;;;;12.63;10.82;;;;;;;;;;4175187;34;20538;-72
2022/01/25 09:52:01;;;;;;;15.23;12.25;;;;;;;;;;4162347;34;20174;-72
2022/01/25 09:54:27;;;;;;;21.12;14.10;;;;;;;;;;4176192;34;20106;-72
2022/01/25 09:56:53;;;;;;;20.95;15.63;;;;;;;;;;4177099;34;20111;-72
2022/01/25 09:59:19;;;;;;;20.73;13.75;;;;;;;;;;4163931;34;20127;-72
2022/01/25 10:01:46;;;;;;;18.10;12.88;;;;;;;;;;4176336;34;20525;-72
2022/01/25 10:04:38;;;;;;;17.50;12.40;;;;;;;;;;4176989;34;20145;-72
2022/01/25 10:07:05;;;;;;;14.15;10.85;;;;;;;;;;4176971;34;20189;-72
2022/01/25 10:09:32;;;;;;;13.35;10.73;;;;;;;;;;4176429;34;20214;-71
2022/01/25 10:12:19;;;;;;;12.50;9.65;;;;;;;;;;4175182;34;20210;-72
2022/01/25 10:15:14;;;;;;;12.35;10.05;;;;;;;;;;4175230;34;20503;-74
2022/01/25 10:17:43;;;;;;;12.60;10.23;;;;;;;;;;4161336;34;20129;-72
2022/01/25 10:20:30;;;;;;;12.63;10.10;;;;;;;;;;4175321;34;20097;-70
2022/01/25 10:22:59;;;;;;;13.30;10.00;;;;;;;;;;4183059;34;20102;-72
2022/01/25 10:25:35;;;;;;;12.73;9.65;;;;;;;;;;4167854;34;20118;-73
2022/01/25 10:28:11;;;;;;;13.98;10.82;;;;;;;;;;4173245;34;20162;-73
2022/01/25 10:30:50;;;;;;;15.60;10.88;;;;;;;;;;4171805;34;20130;-74
2022/01/25 10:33:43;;;;;;;14.95;11.35;;;;;;;;;;4163868;34;20102;-72
2022/01/25 10:36:16;;;;;;;12.37;10.18;;;;;;;;;;4174606;34;20129;-72
2022/01/25 10:38:44;;;;;;;15.45;10.88;;;;;;;;;;4175299;34;20102;-73
2022/01/25 10:41:13;;;;;;;13.82;10.02;;;;;;;;;;4172605;34;20115;-73
2022/01/25 10:43:41;;;;;;;14.80;11.05;;;;;;;;;;4162864;34;20110;-71
2022/01/25 10:46:12;;;;;;;14.87;10.75;;;;;;;;;;4172577;34;20615;-72
2022/01/25 10:48:39;;;;;;;12.60;9.95;;;;;;;;;;4161840;34;20125;-72
2022/01/25 10:51:14;;;;;;;13.90;10.65;;;;;;;;;;4171626;34;20860;-71
2022/01/25 10:53:40;;;;;;;14.32;11.43;;;;;;;;;;4173783;34;20103;-72
2022/01/25 10:56:07;;;;;;;14.40;10.85;;;;;;;;;;4162454;34;20112;-73
2022/01/25 10:58:42;;;;;;;14.18;10.63;;;;;;;;;;4176652;34;20291;-71
2022/01/25 11:01:10;;;;;;;13.52;10.55;;;;;;;;;;4160709;34;20099;-72
2022/01/25 11:03:40;;;;;;;11.98;9.35;;;;;;;;;;4172771;34;20431;-71
2022/01/25 11:06:12;;;;;;;15.38;12.32;;;;;;;;;;4161243;34;20170;-71
2022/01/25 11:08:39;;;;;;;11.95;10.13;;;;;;;;;;4162924;34;20103;-71
2022/01/25 11:11:09;;;;;;;13.35;10.05;;;;;;;;;;4160665;34;20313;-71
2022/01/25 11:13:37;;;;;;;11.55;10.00;;;;;;;;;;4159368;34;20178;-72
2022/01/25 11:16:09;;;;;;;14.18;9.65;;;;;;;;;;4171906;34;20515;-71
2022/01/25 11:18:36;;;;;;;14.45;10.38;;;;;;;;;;4174947;34;20113;-73
2022/01/25 11:21:07;;;;;;;13.43;9.75;;;;;;;;;;4170542;34;20114;-74
2022/01/25 11:23:36;;;;;;;15.50;10.18;;;;;;;;;;4174885;34;20107;-72
2022/01/25 11:26:08;;;;;;;16.15;10.65;;;;;;;;;;4162677;34;20197;-73
2022/01/25 11:28:36;;;;;;;12.68;9.73;;;;;;;;;;4163770;34;20099;-72
2022/01/25 11:31:07;;;;;;;11.73;8.93;;;;;;;;;;4164005;34;20142;-72
2022/01/25 11:33:35;;;;;;;12.35;9.20;;;;;;;;;;4160804;34;20630;-74
2022/01/25 11:36:07;;;;;;;12.15;9.35;;;;;;;;;;4171024;34;20198;-70
2022/01/25 11:38:39;;;;;;;14.45;9.35;;;;;;;;;;4163302;34;20103;-73
2022/01/25 11:41:10;;;;;;;9.65;8.32;;;;;;;;;;4174045;34;20225;-72
2022/01/25 11:43:37;;;;;;;12.93;8.90;;;;;;;;;;4174431;34;20138;-73
2022/01/25 11:46:06;;;;;;;12.40;8.88;;;;;;;;;;4174319;34;20255;-72
2022/01/25 11:48:50;;;;;;;9.48;7.78;;;;;;;;;;4174585;34;20113;-72
2022/01/25 11:51:18;;;;;;;11.75;9.15;;;;;;;;;;4173600;34;20692;-72
2022/01/25 11:53:47;;;;;;;11.70;9.18;;;;;;;;;;4159891;34;20118;-71
2022/01/25 11:56:13;;;;;;;11.88;8.80;;;;;;;;;;4162656;34;20198;-73
2022/01/25 11:58:41;;;;;;;10.95;9.40;;;;;;;;;;4160949;34;20106;-72
2022/01/25 12:01:19;;;;;;;12.37;9.68;;;;;;;;;;4149029;34;20123;-72
2022/01/25 12:04:04;;;;;;;16.17;12.73;;;;;;;;;;4167433;34;20119;-72
2022/01/25 12:06:34;;;;;;;24.42;18.50;;;;;;;;;;4172532;34;20135;-71
2022/01/25 12:11:49;;;;;;;23.85;18.10;;;;;;;;;;4175675;34;20130;-72
2022/01/25 12:14:17;;;;;;;19.25;14.35;;;;;;;;;;4177210;34;20529;-73
2022/01/25 12:16:55;;;;;;;13.10;9.68;;;;;;;;;;4178013;34;20121;-73
2022/01/25 12:19:30;;;;;;;12.07;9.02;;;;;;;;;;4165320;34;20163;-74
2022/01/25 12:22:06;;;;;;;11.57;8.52;;;;;;;;;;4176720;34;20119;-73
2022/01/25 12:28:01;;;;;;;10.70;8.63;;;;;;;;;;4178097;34;20649;-75
2022/01/25 12:30:34;;;;;;;14.07;11.30;;;;;;;;;;4174692;34;20118;-75
2022/01/25 12:33:08;;;;;;;14.00;11.10;;;;;;;;;;4176727;34;20103;-74
2022/01/25 12:36:02;;;;;;;14.35;11.07;;;;;;;;;;4178086;34;20098;-72
2022/01/25 12:38:37;;;;;;;11.68;9.65;;;;;;;;;;4188238;34;20097;-72
2022/01/25 12:41:12;;;;;;;11.73;9.30;;;;;;;;;;4178022;34;20223;-73
2022/01/25 12:43:53;;;;;;;13.00;9.30;;;;;;;;;;4187921;34;20502;-73
2022/01/25 12:46:22;;;;;;;10.95;9.10;;;;;;;;;;4176232;34;20122;-72
2022/01/25 12:48:53;;;;;;;15.95;12.27;;;;;;;;;;4187640;34;20226;-74
2022/01/25 12:51:25;;;;;;;18.48;12.55;;;;;;;;;;4165229;34;20736;-72
2022/01/25 12:53:53;;;;;;;14.90;12.30;;;;;;;;;;4178350;34;20128;-72
2022/01/25 12:56:30;;;;;;;15.05;11.60;;;;;;;;;;4188066;34;20121;-71
2022/01/25 12:59:03;;;;;;;16.65;11.27;;;;;;;;;;4189266;34;20110;-73
2022/01/25 13:01:30;;;;;;;17.20;11.30;;;;;;;;;;4186717;34;20126;-75
2022/01/25 13:04:01;;;;;;;16.00;11.48;;;;;;;;;;4164513;34;20130;-75
2022/01/25 13:06:33;;;;;;;16.45;12.13;;;;;;;;;;4153613;34;20221;-74
2022/01/25 13:09:12;;;;;;;17.10;12.55;;;;;;;;;;4153999;34;20106;-72
2022/01/25 13:12:09;;;;;;;17.58;13.95;;;;;;;;;;4153749;34;20482;-71
2022/01/25 13:17:16;;;;;;;16.92;12.27;;;;;;;;;;4177690;34;20095;-73
2022/01/25 13:19:52;;;;;;;17.90;13.20;;;;;;;;;;4164987;34;20146;-75
2022/01/25 13:22:29;;;;;;;18.90;13.85;;;;;;;;;;4177429;34;20200;-75
2022/01/25 13:25:13;;;;;;;19.58;13.90;;;;;;;;;;4177586;34;20118;-75
2022/01/25 13:27:50;;;;;;;17.73;13.30;;;;;;;;;;4164842;34;20110;-75
2022/01/25 13:33:11;;;;;;;20.35;11.95;;;;;;;;;;4166454;34;20432;-73
2022/01/25 13:35:40;;;;;;;18.48;13.10;;;;;;;;;;4164816;34;20542;-75
2022/01/25 13:38:27;;;;;;;15.80;12.32;;;;;;;;;;4176146;34;20129;-77
2022/01/25 13:41:00;;;;;;;17.15;14.15;;;;;;;;;;4175991;34;20522;-77
2022/01/25 13:46:37;;;;;;;15.75;13.95;;;;;;;;;;4169055;34;20114;-76
2022/01/25 13:49:12;;;;;;;17.92;13.15;;;;;;;;;;4164515;34;20611;-74
2022/01/25 13:51:44;;;;;;;18.42;12.25;;;;;;;;;;4164488;34;20507;-74
2022/01/25 13:54:15;;;;;;;16.33;11.95;;;;;;;;;;4164411;34;20215;-72
2022/01/25 13:56:42;;;;;;;14.52;12.13;;;;;;;;;;4164159;34;20211;-72
2022/01/25 13:59:08;;;;;;;16.23;12.57;;;;;;;;;;4175683;34;20133;-73
2022/01/25 14:01:36;;;;;;;21.73;15.63;;;;;;;;;;4164157;34;20133;-72
2022/01/25 14:04:16;;;;;;;41.95;30.73;;;;;;;;;;4175767;34;20555;-71
2022/01/25 14:06:45;;;;;;;43.00;30.73;;;;;;;;;;4164072;34;20519;-72
2022/01/25 14:09:23;;;;;;;76.12;52.42;;;;;;;;;;4175596;34;20114;-71
2022/01/25 14:21:32;;;;;;;75.35;54.50;;;;;;;;;;4165250;34;20102;-73
2022/01/25 14:23:24;;;;;;;58.42;42.95;;;;;;;;;;4164026;34;20102;-73
2022/01/25 14:26:00;;;;;;;35.13;26.50;;;;;;;;;;4164976;34;20197;-71
2022/01/25 14:28:26;;;;;;;41.92;30.35;;;;;;;;;;4162198;34;20111;-69
2022/01/25 14:30:54;;;;;;;41.40;30.02;;;;;;;;;;4162601;34;20114;-75
2022/01/25 14:33:30;;;;;;;66.45;44.70;;;;;;;;;;4164006;34;20120;-71
2022/01/25 14:36:00;;;;;;;49.75;36.08;;;;;;;;;;4164147;34;20082;-72
2022/01/25 14:38:31;;;;;;;37.00;28.83;;;;;;;;;;4176507;34;20093;-68
2022/01/25 14:41:09;;;;;;;33.40;24.95;;;;;;;;;;4164255;34;20133;-71
2022/01/25 14:43:45;;;;;;;27.98;21.52;;;;;;;;;;4164058;34;20190;-71
2022/01/25 14:46:30;;;;;;;18.17;13.77;;;;;;;;;;4163973;34;20202;-72
2022/01/25 14:48:59;;;;;;;17.55;12.65;;;;;;;;;;4176839;34;20107;-71
2022/01/25 14:51:40;;;;;;;18.92;13.25;;;;;;;;;;4164138;34;20091;-74
2022/01/25 14:54:08;;;;;;;36.47;27.33;;;;;;;;;;4177952;34;20206;-74
2022/01/25 14:56:36;;;;;;;57.47;41.10;;;;;;;;;;4177206;34;20210;-75
2022/01/25 14:59:23;;;;;;;55.25;40.65;;;;;;;;;;4164468;34;20122;-73
2022/01/25 15:01:55;;;;;;;60.85;42.50;;;;;;;;;;4163800;34;20109;-72
2022/01/25 15:04:21;;;;;;;57.85;41.22;;;;;;;;;;4161366;34;20129;-73
2022/01/25 15:06:48;;;;;;;62.62;41.17;;;;;;;;;;4161468;34;20113;-74
2022/01/25 15:09:15;;;;;;;53.70;40.67;;;;;;;;;;4175083;34;20193;-75
2022/01/25 15:11:41;;;;;;;54.22;39.85;;;;;;;;;;4160882;34;20552;-73
2022/01/25 15:14:15;;;;;;;62.70;44.83;;;;;;;;;;4150047;34;20138;-74
2022/01/25 15:16:41;;;;;;;70.57;48.58;;;;;;;;;;4172444;34;20090;-75
2022/01/25 15:19:07;;;;;;;69.07;46.25;;;;;;;;;;4161432;34;20129;-74
2022/01/25 15:21:33;;;;;;;53.00;38.90;;;;;;;;;;4173991;34;20294;-71
2022/01/25 15:23:59;;;;;;;59.33;44.63;;;;;;;;;;4174368;34;20131;-74
2022/01/25 15:26:28;;;;;;;45.58;36.22;;;;;;;;;;4175105;34;20117;-68
2022/01/25 15:28:58;;;;;;;35.30;27.27;;;;;;;;;;4175580;34;20106;-78
2022/01/25 15:31:24;;;;;;;29.35;19.12;;;;;;;;;;4175079;34;20578;-79
2022/01/25 15:33:51;;;;;;;19.48;16.15;;;;;;;;;;4163291;34;20095;-80
2022/01/25 15:36:19;;;;;;;17.75;14.32;;;;;;;;;;4176436;34;20085;-80
2022/01/25 15:38:47;;;;;;;18.87;12.98;;;;;;;;;;4162506;34;20098;-75
2022/01/25 15:41:16;;;;;;;15.55;11.57;;;;;;;;;;4162258;34;20222;-77
2022/01/25 15:43:49;;;;;;;13.70;10.80;;;;;;;;;;4164888;34;20102;-77
2022/01/25 15:46:27;;;;;;;14.40;10.65;;;;;;;;;;4165077;34;20121;-77
2022/01/25 15:48:55;;;;;;;14.32;10.30;;;;;;;;;;4175827;34;20458;-77
2022/01/25 15:51:21;;;;;;;16.17;11.50;;;;;;;;;;4175896;34;20094;-77
2022/01/25 15:53:49;;;;;;;14.98;10.40;;;;;;;;;;4161532;34;20122;-75
2022/01/25 15:56:15;;;;;;;13.73;10.38;;;;;;;;;;4163081;34;20087;-77
2022/01/25 15:58:43;;;;;;;12.40;10.25;;;;;;;;;;4164841;34;20209;-75
2022/01/25 16:01:12;;;;;;;16.27;10.73;;;;;;;;;;4164830;34;20122;-78
2022/01/25 16:03:39;;;;;;;13.00;10.20;;;;;;;;;;4176471;34;20115;-76
2022/01/25 16:06:06;;;;;;;16.12;11.10;;;;;;;;;;4176845;34;20102;-78
2022/01/25 16:08:34;;;;;;;16.30;10.77;;;;;;;;;;4180183;34;20095;-78
2022/01/25 16:11:02;;;;;;;13.90;9.43;;;;;;;;;;4176953;34;20981;-80
2022/01/25 16:13:29;;;;;;;13.50;9.68;;;;;;;;;;4161812;34;20533;-77
2022/01/25 16:15:55;;;;;;;13.02;9.43;;;;;;;;;;4163556;34;20210;-79
2022/01/25 16:18:24;;;;;;;12.95;9.15;;;;;;;;;;4162209;34;20463;-79
2022/01/25 16:20:50;;;;;;;13.65;9.90;;;;;;;;;;4164100;34;20190;-76
2022/01/25 16:23:16;;;;;;;13.35;8.55;;;;;;;;;;4176945;34;20114;-79
2022/01/25 16:25:44;;;;;;;19.98;14.02;;;;;;;;;;4178275;34;20557;-76
2022/01/25 16:28:10;;;;;;;12.85;10.15;;;;;;;;;;4175067;34;20125;-75
2022/01/25 16:30:36;;;;;;;10.25;8.10;;;;;;;;;;4165753;34;20175;-77
2022/01/25 16:33:03;;;;;;;11.93;8.60;;;;;;;;;;4176174;34;20202;-78
2022/01/25 16:35:30;;;;;;;10.13;8.40;;;;;;;;;;4176741;34;20206;-78
2022/01/25 16:37:56;;;;;;;9.85;8.25;;;;;;;;;;4174603;34;20118;-78